Time;durP1;ratioP1;P1;durP2;ratioP2;P2;SDS_P1;SDS_P2;PMS_P1;PMS_P2;Temp;Humidity;BMP_temperature;BMP_pressure;BME280_temperature;BME280_humidity;BME280_pressure;Samples;Min_cycle;Max_cycle;Signal;HPM_P1;HPM_P2
2023/07/15 00:00:41;;;;;;;;;;;22.40;72.50;;;21.72;66.19;96573.94;5030944;28;19921;-89
2023/07/15 00:03:09;;;;;;;;;;;22.40;72.50;;;21.72;66.43;96582.31;5013266;28;19922;-89
2023/07/15 00:05:39;;;;;;;;;;;22.40;72.70;;;21.69;66.01;96579.34;5029840;28;20120;-89
2023/07/15 00:08:07;;;;;;;;;;;22.40;72.40;;;21.70;66.30;96576.25;5013327;28;19927;-89
2023/07/15 00:10:36;;;;;;;;;;;22.40;72.20;;;21.67;66.16;96582.47;5013336;28;19927;-89
2023/07/15 00:13:06;;;;;;;;;;;22.30;72.20;;;21.64;65.95;96576.75;5029596;28;19928;-89
2023/07/15 00:15:34;;;;;;;;;;;22.30;72.20;;;21.62;66.07;96585.47;5029945;28;19921;-88
2023/07/15 00:18:02;;;;;;;;;;;22.30;72.30;;;21.62;66.34;96579.91;5013237;28;19921;-89
2023/07/15 00:20:30;;;;;;;;;;;22.30;72.30;;;21.61;66.25;96581.84;5013225;28;19921;-88
2023/07/15 00:22:58;;;;;;;;;;;22.30;72.40;;;21.60;66.46;96582.19;5031476;28;19928;-88
2023/07/15 00:25:26;;;;;;;;;;;22.30;72.40;;;21.60;66.35;96571.84;5016519;28;20224;-88
2023/07/15 00:27:55;;;;;;;;;;;22.30;72.60;;;21.59;66.51;96575.78;5033107;28;19940;-88
2023/07/15 00:30:23;;;;;;;;;;;22.20;72.50;;;21.60;66.36;96583.00;5016511;28;19921;-88
2023/07/15 00:32:51;;;;;;;;;;;22.30;72.60;;;21.61;66.75;96578.25;5016221;28;20120;-89
2023/07/15 00:35:20;;;;;;;;;;;22.30;72.80;;;21.60;66.59;96576.63;5016471;28;20208;-89
2023/07/15 00:37:48;;;;;;;;;;;22.30;72.80;;;21.59;66.82;96567.44;5032957;28;19928;-89
2023/07/15 00:40:17;;;;;;;;;;;22.30;72.90;;;21.62;66.38;96579.91;5032900;28;20078;-88
2023/07/15 00:43:24;;;;;;;;;;;22.30;72.70;;;21.61;66.33;96579.06;5032709;28;19921;-88
2023/07/15 00:46:31;;;;;;;;;;;22.30;72.60;;;21.61;66.29;96578.25;5033842;28;19921;-89
2023/07/15 00:49:04;;;;;;;;;;;22.30;72.50;;;21.60;66.47;96580.22;4985680;28;19921;-88
2023/07/15 00:51:34;;;;;;;;;;;22.30;72.60;;;21.60;66.31;96576.63;5016203;28;19927;-88
2023/07/15 00:54:02;;;;;;;;;;;22.30;72.50;;;21.60;66.44;96579.41;5016049;28;19921;-88
2023/07/15 00:56:34;;;;;;;;;;;22.20;72.60;;;21.58;66.37;96574.13;5032660;28;19921;-88
2023/07/15 00:59:05;;;;;;;;;;;22.30;72.60;;;21.58;66.66;96585.25;5016008;28;19921;-88
2023/07/15 01:01:34;;;;;;;;;;;22.20;72.50;;;21.59;66.59;96578.56;5016115;28;20212;-89
2023/07/15 01:04:03;;;;;;;;;;;22.30;72.70;;;21.58;66.52;96585.25;5015999;28;19921;-88
2023/07/15 01:06:33;;;;;;;;;;;22.20;72.80;;;21.60;66.52;96584.97;5016085;28;20093;-88
2023/07/15 01:09:04;;;;;;;;;;;22.20;72.80;;;21.60;66.63;96577.44;5015846;28;19921;-87
2023/07/15 01:11:33;;;;;;;;;;;22.30;72.80;;;21.59;66.43;96573.00;5015866;28;19921;-88
2023/07/15 01:14:01;;;;;;;;;;;22.20;72.50;;;21.57;66.55;96571.69;5032353;28;19921;-88
2023/07/15 01:16:29;;;;;;;;;;;22.20;72.40;;;21.58;66.46;96576.09;5015961;28;19931;-88
2023/07/15 01:18:57;;;;;;;;;;;22.20;72.50;;;21.58;66.57;96574.13;5015805;28;20120;-88
2023/07/15 01:21:29;;;;;;;;;;;22.20;72.70;;;21.59;66.65;96575.78;5032314;28;19921;-89
2023/07/15 01:23:58;;;;;;;;;;;22.20;72.60;;;21.58;66.51;96576.09;5032120;28;20283;-88
2023/07/15 01:26:26;;;;;;;;;;;22.20;72.50;;;21.58;66.23;96567.75;5032075;28;19927;-88
2023/07/15 01:28:54;;;;;;;;;;;22.20;72.40;;;21.58;66.34;96578.88;5015548;28;19921;-88
2023/07/15 01:31:22;;;;;;;;;;;22.20;72.40;;;21.57;66.23;96578.06;5015738;28;19921;-87
2023/07/15 01:33:51;;;;;;;;;;;22.20;72.40;;;21.56;66.32;96586.75;5015254;28;19928;-88
2023/07/15 01:36:19;;;;;;;;;;;22.20;72.40;;;21.55;66.37;96574.81;5032011;28;19953;-88
2023/07/15 01:38:48;;;;;;;;;;;22.20;72.40;;;21.55;66.28;96568.41;5015602;28;19921;-88
2023/07/15 01:41:17;;;;;;;;;;;22.20;72.30;;;21.55;66.34;96568.41;5015811;28;19921;-88
2023/07/15 01:43:46;;;;;;;;;;;22.20;72.30;;;21.55;66.21;96557.25;5015347;28;19921;-88
2023/07/15 01:46:14;;;;;;;;;;;22.20;72.40;;;21.53;66.08;96567.91;5031715;28;19921;-87
2023/07/15 01:48:42;;;;;;;;;;;22.20;72.30;;;21.53;66.23;96565.13;5031712;28;19929;-88
2023/07/15 01:51:09;;;;;;;;;;;22.20;72.20;;;21.52;66.00;96571.84;5015276;28;19921;-88
2023/07/15 01:53:37;;;;;;;;;;;22.20;72.20;;;21.50;66.25;96565.78;5015037;28;19921;-88
2023/07/15 01:56:05;;;;;;;;;;;22.20;72.10;;;21.51;66.14;96573.00;5015220;28;19921;-88
2023/07/15 01:58:35;;;;;;;;;;;22.20;72.20;;;21.50;66.33;96565.78;5015262;28;19921;-88
2023/07/15 02:01:04;;;;;;;;;;;22.20;72.30;;;21.50;66.18;96568.56;5015229;28;20209;-88
2023/07/15 02:03:32;;;;;;;;;;;22.20;72.10;;;21.48;65.98;96568.13;5031594;28;19927;-88
2023/07/15 02:06:00;;;;;;;;;;;22.10;72.00;;;21.46;65.97;96569.25;5015101;28;20377;-87
2023/07/15 02:08:29;;;;;;;;;;;22.10;72.10;;;21.46;66.00;96569.25;5030813;28;19935;-88
2023/07/15 02:10:57;;;;;;;;;;;22.10;72.10;;;21.46;65.93;96574.00;5030754;28;19943;-88
2023/07/15 02:13:25;;;;;;;;;;;22.10;72.20;;;21.46;66.24;96572.03;5014670;28;19928;-88
2023/07/15 02:15:55;;;;;;;;;;;22.10;72.30;;;21.44;66.15;96568.78;5031531;28;19922;-89
2023/07/15 02:18:25;;;;;;;;;;;22.10;72.10;;;21.46;66.15;96568.44;5031292;28;19927;-88
2023/07/15 02:20:53;;;;;;;;;;;22.10;72.10;;;21.45;65.75;96570.41;5014886;28;19921;-88
2023/07/15 02:23:22;;;;;;;;;;;22.10;72.00;;;21.45;65.69;96566.78;5031087;28;19921;-88
2023/07/15 02:25:50;;;;;;;;;;;22.10;71.90;;;21.38;65.55;96550.59;5031243;28;19921;-88
2023/07/15 02:28:18;;;;;;;;;;;22.10;71.70;;;21.39;65.68;96557.81;5031042;28;19927;-88
2023/07/15 02:30:46;;;;;;;;;;;22.10;71.70;;;21.36;65.89;96566.00;5047539;28;19928;-88
2023/07/15 02:33:15;;;;;;;;;;;22.10;71.80;;;21.35;65.61;96562.41;5014445;28;19922;-88
2023/07/15 02:35:43;;;;;;;;;;;22.00;71.80;;;21.36;65.86;96569.63;5014585;28;19928;-88
2023/07/15 02:38:11;;;;;;;;;;;22.00;71.90;;;21.36;65.82;96572.41;5031010;28;20115;-88
2023/07/15 02:40:38;;;;;;;;;;;22.00;71.80;;;21.36;65.83;96569.63;5047692;28;19927;-88
2023/07/15 02:43:07;;;;;;;;;;;22.00;71.70;;;21.35;65.62;96570.78;5030628;28;19921;-88
2023/07/15 02:45:35;;;;;;;;;;;22.00;71.60;;;21.36;65.58;96577.97;5030232;28;20209;-87
2023/07/15 02:48:03;;;;;;;;;;;22.00;71.60;;;21.35;65.75;96576.34;5014447;28;19927;-88
2023/07/15 02:50:33;;;;;;;;;;;22.00;71.70;;;21.35;65.86;96584.69;5014726;28;19921;-88
2023/07/15 02:53:03;;;;;;;;;;;22.00;71.70;;;21.35;65.64;96587.47;5047086;28;19922;-89
2023/07/15 02:55:31;;;;;;;;;;;22.00;71.70;;;21.33;65.97;96583.38;5014557;28;19921;-88
2023/07/15 02:57:59;;;;;;;;;;;22.00;71.70;;;21.34;65.69;96591.41;5031813;28;19921;-88
2023/07/15 03:00:27;;;;;;;;;;;22.00;71.90;;;21.33;65.71;96572.22;5030688;28;19928;-88
2023/07/15 03:02:55;;;;;;;;;;;22.00;71.60;;;21.34;65.58;96585.00;5030614;28;19921;-88
2023/07/15 03:05:23;;;;;;;;;;;22.00;71.60;;;21.31;65.59;96581.75;5014337;28;19927;-89
2023/07/15 03:07:52;;;;;;;;;;;22.00;71.50;;;21.30;65.63;96587.66;5014075;28;19921;-88
2023/07/15 03:10:20;;;;;;;;;;;22.00;71.60;;;21.31;65.67;96586.50;5030468;28;19921;-87
2023/07/15 03:12:48;;;;;;;;;;;22.00;71.90;;;21.32;66.00;96585.34;5030291;28;19921;-89
2023/07/15 03:15:16;;;;;;;;;;;22.00;71.80;;;21.31;65.56;96587.31;5030362;28;20093;-87
2023/07/15 03:17:45;;;;;;;;;;;22.00;71.70;;;21.30;65.78;96594.03;5014102;28;19921;-88
2023/07/15 03:20:19;;;;;;;;;;;22.00;71.70;;;21.29;65.52;96594.38;5013980;28;19928;-88
2023/07/15 03:22:47;;;;;;;;;;;22.00;71.70;;;21.29;65.90;96605.50;5030391;28;19927;-88
2023/07/15 03:25:19;;;;;;;;;;;22.00;71.70;;;21.29;65.86;96613.84;5013957;28;20130;-88
2023/07/15 03:27:47;;;;;;;;;;;22.00;71.80;;;21.30;65.84;96604.34;5013986;28;19932;-88
2023/07/15 03:30:15;;;;;;;;;;;22.00;72.00;;;21.32;65.92;96607.63;5030284;28;19936;-88
2023/07/15 03:32:43;;;;;;;;;;;22.00;71.90;;;21.31;65.81;96597.63;5030244;28;19921;-88
2023/07/15 03:35:15;;;;;;;;;;;22.00;71.70;;;21.31;65.88;96604.00;5013981;28;20149;-88
2023/07/15 03:37:44;;;;;;;;;;;22.00;71.80;;;21.29;65.82;96599.94;5030291;28;19921;-88
2023/07/15 03:40:12;;;;;;;;;;;22.00;71.90;;;21.30;65.73;96607.94;5029946;28;19921;-88
2023/07/15 03:42:42;;;;;;;;;;;22.00;71.90;;;21.29;65.79;96614.69;5013798;28;20124;-88
2023/07/15 03:45:10;;;;;;;;;;;22.00;72.90;;;21.31;66.14;96611.56;5031147;28;19966;-89
2023/07/15 03:47:38;;;;;;;;;;;22.00;72.10;;;21.32;65.89;96616.00;5013770;28;19921;-88
2023/07/15 03:50:07;;;;;;;;;;;22.00;72.10;;;21.32;66.00;96627.13;5013619;28;19921;-88
2023/07/15 03:52:35;;;;;;;;;;;22.00;72.00;;;21.32;65.88;96621.56;5030086;28;19927;-88
2023/07/15 03:55:03;;;;;;;;;;;22.00;72.00;;;21.32;66.11;96629.91;5013369;28;19921;-88
2023/07/15 03:57:31;;;;;;;;;;;22.00;72.00;;;21.33;66.00;96627.94;5032741;28;20207;-88
2023/07/15 04:00:01;;;;;;;;;;;22.00;72.00;;;21.31;65.93;96625.50;5016956;28;19927;-88
2023/07/15 04:02:28;;;;;;;;;;;22.00;72.00;;;21.33;66.20;96631.56;5017004;28;19921;-88
2023/07/15 04:04:56;;;;;;;;;;;22.00;72.10;;;21.34;65.94;96629.56;5016787;28;19928;-87
2023/07/15 04:07:24;;;;;;;;;;;22.00;72.10;;;21.32;65.83;96621.56;5017372;28;19927;-88
2023/07/15 04:09:52;;;;;;;;;;;22.00;72.00;;;21.33;65.99;96622.34;5034229;28;19927;-89
2023/07/15 04:12:21;;;;;;;;;;;22.00;72.20;;;21.32;66.06;96624.34;5049967;28;19921;-89
2023/07/15 04:14:49;;;;;;;;;;;22.00;72.20;;;21.33;66.34;96627.94;5033001;28;20120;-88
2023/07/15 04:17:18;;;;;;;;;;;22.00;72.40;;;21.33;66.23;96628.75;5033193;28;19928;-88
2023/07/15 04:19:46;;;;;;;;;;;22.00;72.40;;;21.34;66.16;96622.06;5016645;28;19921;-88
2023/07/15 04:22:14;;;;;;;;;;;22.00;72.40;;;21.36;66.40;96622.53;5016736;28;19975;-88
2023/07/15 04:24:42;;;;;;;;;;;22.00;72.50;;;21.38;66.36;96619.41;5016612;28;19943;-88
2023/07/15 04:27:10;;;;;;;;;;;22.00;72.50;;;21.40;66.17;96628.25;5016564;28;19921;-88
2023/07/15 04:29:37;;;;;;;;;;;22.10;72.40;;;21.41;66.54;96618.75;5033044;28;19921;-88
2023/07/15 04:32:06;;;;;;;;;;;22.00;72.60;;;21.41;66.47;96614.00;5016460;28;19928;-88
2023/07/15 04:34:35;;;;;;;;;;;22.10;72.50;;;21.45;66.32;96625.28;5016260;28;19925;-89
2023/07/15 04:37:03;;;;;;;;;;;22.10;72.50;;;21.46;66.25;96627.75;5016544;28;19925;-87
2023/07/15 04:39:31;;;;;;;;;;;22.10;72.50;;;21.48;66.47;96623.81;5016393;28;19921;-88
2023/07/15 04:41:59;;;;;;;;;;;22.10;72.50;;;21.51;66.42;96620.34;5016462;28;19921;-88
2023/07/15 04:44:27;;;;;;;;;;;22.20;72.50;;;21.54;66.61;96622.47;5016231;28;19921;-88
2023/07/15 04:46:55;;;;;;;;;;;22.20;72.80;;;21.56;66.56;96623.78;5032819;28;20208;-88
2023/07/15 04:49:23;;;;;;;;;;;22.20;72.80;;;21.59;66.82;96630.66;5016213;28;19921;-88
2023/07/15 04:51:53;;;;;;;;;;;22.20;72.90;;;21.64;66.96;96622.16;5032652;28;19921;-88
2023/07/15 04:54:20;;;;;;;;;;;22.20;73.30;;;21.68;67.09;96625.91;5016176;28;19921;-88
2023/07/15 04:56:48;;;;;;;;;;;22.30;73.50;;;21.70;66.59;96623.63;5016013;28;19921;-88
2023/07/15 04:59:16;;;;;;;;;;;22.30;73.00;;;21.75;66.63;96636.53;5016093;28;19921;-88
2023/07/15 05:01:44;;;;;;;;;;;22.30;73.00;;;21.74;66.28;96632.13;5016155;28;19927;-88
2023/07/15 05:04:12;;;;;;;;;;;22.40;72.80;;;21.72;66.58;96629.69;5032435;28;19921;-87
2023/07/15 05:06:40;;;;;;;;;;;22.30;73.00;;;21.70;66.55;96629.19;5015926;28;19928;-89
2023/07/15 05:09:10;;;;;;;;;;;22.30;72.90;;;21.69;66.69;96629.50;5015139;28;19921;-88
2023/07/15 05:11:38;;;;;;;;;;;22.30;73.00;;;21.69;67.00;96633.13;5032474;28;19928;-88
2023/07/15 05:14:06;;;;;;;;;;;22.30;73.10;;;21.69;66.94;96640.66;5031539;28;19921;-89
2023/07/15 05:16:33;;;;;;;;;;;22.30;73.10;;;21.68;67.13;96639.03;5032232;28;19922;-89
2023/07/15 05:19:01;;;;;;;;;;;22.30;73.20;;;21.67;66.74;96638.22;5032220;28;19921;-88
2023/07/15 05:21:29;;;;;;;;;;;22.30;73.40;;;21.68;67.04;96639.84;5032049;28;19927;-88
2023/07/15 05:23:57;;;;;;;;;;;22.30;73.60;;;21.67;67.31;96632.63;5031541;28;20102;-88
2023/07/15 05:26:27;;;;;;;;;;;22.30;73.80;;;21.69;67.27;96640.66;5015564;28;19944;-88
2023/07/15 05:28:54;;;;;;;;;;;22.30;73.80;;;21.69;67.39;96635.91;5015587;28;20231;-89
2023/07/15 05:31:22;;;;;;;;;;;22.30;73.70;;;21.70;67.44;96639.50;5032086;28;19928;-89
2023/07/15 05:33:50;;;;;;;;;;;22.30;74.60;;;21.72;67.30;96638.03;5014984;28;20128;-89
2023/07/15 05:36:18;;;;;;;;;;;22.30;73.70;;;21.74;67.63;96637.69;5015486;28;19927;-89
2023/07/15 05:38:46;;;;;;;;;;;22.40;73.80;;;21.77;67.29;96637.03;5031859;28;19936;-89
2023/07/15 05:41:14;;;;;;;;;;;22.40;73.80;;;21.82;67.83;96638.81;5031705;28;19921;-89
2023/07/15 05:43:43;;;;;;;;;;;22.40;74.20;;;21.86;67.44;96637.00;5014849;28;19928;-89
2023/07/15 05:46:11;;;;;;;;;;;22.40;73.80;;;21.89;67.47;96644.69;5032868;28;19927;-89
2023/07/15 05:48:39;;;;;;;;;;;22.50;73.80;;;21.92;67.60;96642.06;5015410;28;19944;-89
2023/07/15 05:51:07;;;;;;;;;;;22.50;73.80;;;21.95;67.49;96634.16;5015124;28;19921;-89
2023/07/15 05:53:35;;;;;;;;;;;22.60;73.90;;;21.99;67.50;96638.75;5014799;28;19928;-89
2023/07/15 06:15:02;;;;;;;;;;;22.70;73.00;;;22.37;66.47;96637.06;4299664;32;2035823;-89
2023/07/15 06:17:31;;;;;;;;;;;23.00;72.80;;;22.43;66.14;96637.72;5069445;28;35261;-90
2023/07/15 06:19:58;;;;;;;;;;;23.00;72.60;;;22.47;65.92;96633.13;5070018;28;19920;-90
2023/07/15 06:22:26;;;;;;;;;;;23.10;72.70;;;22.51;66.02;96632.09;5069911;28;19928;-90
2023/07/15 06:24:54;;;;;;;;;;;23.10;72.60;;;22.56;65.91;96633.88;5087270;28;20226;-88
2023/07/15 06:27:22;;;;;;;;;;;23.10;72.50;;;22.58;65.74;96631.56;5070017;28;19926;-89
2023/07/15 06:29:50;;;;;;;;;;;23.10;72.40;;;22.60;66.06;96629.25;5069842;28;19920;-90
2023/07/15 06:32:19;;;;;;;;;;;23.20;72.30;;;22.62;65.49;96626.94;5070003;28;19942;-89
2023/07/15 06:34:47;;;;;;;;;;;23.20;72.20;;;22.64;65.54;96630.22;5068861;28;19921;-89
2023/07/15 06:37:15;;;;;;;;;;;23.20;72.10;;;22.66;65.88;96627.09;5053089;28;19921;-90
2023/07/15 06:39:43;;;;;;;;;;;23.30;72.10;;;22.66;65.77;96622.31;5069992;28;19927;-89
2023/07/15 06:42:11;;;;;;;;;;;23.30;72.10;;;22.71;65.87;96624.09;5086742;28;19978;-90
2023/07/15 06:44:38;;;;;;;;;;;23.30;72.10;;;22.74;65.34;96623.41;5085674;28;19920;-90
2023/07/15 06:47:06;;;;;;;;;;;23.30;72.00;;;22.76;65.67;96623.09;5053142;28;19943;-89
2023/07/15 06:49:36;;;;;;;;;;;23.30;71.80;;;22.80;65.59;96632.38;5052839;28;19920;-90
2023/07/15 06:52:04;;;;;;;;;;;23.40;71.90;;;22.83;65.11;96623.34;5069764;28;19920;-89
2023/07/15 06:54:32;;;;;;;;;;;23.40;71.60;;;22.86;65.32;96625.47;5068939;28;20211;-90
2023/07/15 06:57:00;;;;;;;;;;;23.40;71.50;;;22.90;65.14;96620.84;5069672;28;20124;-90
2023/07/15 06:59:28;;;;;;;;;;;23.40;71.50;;;22.93;65.16;96614.53;5069704;28;19927;-90
2023/07/15 07:01:56;;;;;;;;;;;23.40;71.40;;;22.96;65.09;96619.44;5052689;28;20115;-90
2023/07/15 07:04:24;;;;;;;;;;;23.50;71.40;;;22.96;64.79;96613.88;5082247;28;19928;-90
2023/07/15 07:06:53;;;;;;;;;;;23.50;71.30;;;23.02;64.92;96622.84;5049466;28;19920;-90
2023/07/15 07:09:21;;;;;;;;;;;23.50;71.30;;;23.08;64.66;96620.66;5032814;28;19927;-89
2023/07/15 07:11:49;;;;;;;;;;;23.60;71.20;;;23.09;64.67;96609.16;5049444;28;20238;-90
2023/07/15 07:14:18;;;;;;;;;;;23.60;71.10;;;23.11;64.62;96609.63;5062419;28;19947;-89
2023/07/15 07:16:46;;;;;;;;;;;23.60;71.00;;;23.15;64.23;96618.16;5019762;28;19979;-90
2023/07/15 07:19:14;;;;;;;;;;;23.60;70.90;;;23.15;64.50;96612.56;5035991;28;19921;-90
2023/07/15 07:21:42;;;;;;;;;;;23.70;70.90;;;23.19;64.61;96621.06;5053550;28;19928;-91
2023/07/15 07:24:12;;;;;;;;;;;23.70;70.90;;;23.20;64.22;96619.94;5052906;28;19927;-90
2023/07/15 07:26:39;;;;;;;;;;;23.70;70.80;;;23.20;64.19;96617.94;5019354;28;19920;-90
2023/07/15 07:29:07;;;;;;;;;;;23.70;70.70;;;23.22;64.06;96614.84;5053635;28;19937;-89
2023/07/15 07:31:35;;;;;;;;;;;23.70;70.60;;;23.23;64.31;96610.88;5019150;28;19921;-90
2023/07/15 07:34:03;;;;;;;;;;;23.80;70.70;;;23.24;64.52;96610.53;5018697;28;19920;-89
2023/07/15 07:36:31;;;;;;;;;;;23.70;70.60;;;23.25;64.25;96612.16;5035614;28;19927;-90
2023/07/15 07:38:59;;;;;;;;;;;23.80;70.60;;;23.24;64.15;96613.31;5035754;28;19927;-89
2023/07/15 07:41:28;;;;;;;;;;;23.80;70.60;;;23.27;64.39;96611.81;5019003;28;19921;-89
2023/07/15 07:43:56;;;;;;;;;;;23.80;70.50;;;23.25;64.42;96614.97;5035199;28;19921;-89
2023/07/15 07:46:24;;;;;;;;;;;23.80;70.40;;;23.28;64.13;96611.47;5053142;28;19927;-89
2023/07/15 07:48:52;;;;;;;;;;;23.80;70.50;;;23.26;64.31;96611.00;5035844;28;19927;-89
2023/07/15 07:51:19;;;;;;;;;;;23.80;70.60;;;23.27;64.13;96609.03;5035300;28;19927;-87
2023/07/15 07:53:47;;;;;;;;;;;23.90;70.60;;;23.27;64.45;96604.25;5034924;28;20124;-87
2023/07/15 07:56:15;;;;;;;;;;;23.90;70.70;;;23.29;64.34;96604.75;5019137;28;20215;-87
2023/07/15 07:58:45;;;;;;;;;;;23.90;70.80;;;23.29;64.60;96615.91;5035532;28;19936;-87
2023/07/15 08:01:13;;;;;;;;;;;23.80;70.80;;;23.31;64.66;96609.97;5035112;28;19927;-88
2023/07/15 08:03:41;;;;;;;;;;;23.90;70.90;;;23.31;64.41;96609.97;5018275;28;19921;-88
2023/07/15 08:06:09;;;;;;;;;;;23.90;70.80;;;23.32;64.23;96608.81;5036757;28;19974;-88
2023/07/15 08:08:37;;;;;;;;;;;23.90;70.80;;;23.34;64.60;96611.25;5055372;28;19927;-88
2023/07/15 08:11:04;;;;;;;;;;;23.90;70.60;;;23.34;64.48;96608.47;5055057;28;19927;-88
2023/07/15 08:13:32;;;;;;;;;;;23.90;70.60;;;23.33;64.14;96604.03;5054447;28;19920;-89
2023/07/15 08:16:02;;;;;;;;;;;23.90;70.50;;;23.32;63.99;96608.81;5038334;28;19920;-88
2023/07/15 08:18:29;;;;;;;;;;;23.90;70.40;;;23.32;63.99;96608.81;5072883;28;19942;-88
2023/07/15 08:20:58;;;;;;;;;;;23.90;70.10;;;23.31;64.11;96614.72;5054635;28;19921;-88
2023/07/15 08:23:25;;;;;;;;;;;23.90;70.00;;;23.33;63.42;96609.63;5054595;28;19920;-89
2023/07/15 08:25:54;;;;;;;;;;;23.90;69.70;;;23.34;63.04;96609.28;5053759;28;19920;-88
2023/07/15 08:28:22;;;;;;;;;;;23.90;69.30;;;23.34;63.19;96608.47;5037980;28;19921;-89
2023/07/15 08:30:50;;;;;;;;;;;23.90;69.20;;;23.34;62.78;96606.50;5054714;28;19920;-88
2023/07/15 08:33:19;;;;;;;;;;;23.90;68.90;;;23.34;63.47;96606.50;5054766;28;19921;-88
2023/07/15 08:35:47;;;;;;;;;;;23.90;69.30;;;23.34;62.95;96605.66;5054041;28;19927;-88
2023/07/15 08:38:15;;;;;;;;;;;23.90;69.00;;;23.33;63.54;96602.06;5054776;28;19943;-88
2023/07/15 08:40:43;;;;;;;;;;;23.90;69.40;;;23.33;63.04;96604.03;5072385;28;19924;-87
2023/07/15 08:43:10;;;;;;;;;;;23.90;69.20;;;23.32;63.21;96605.19;5072403;28;19921;-88
2023/07/15 08:45:38;;;;;;;;;;;23.90;69.40;;;23.30;63.18;96599.97;5037198;28;19920;-88
2023/07/15 08:48:07;;;;;;;;;;;23.90;69.40;;;23.30;63.78;96605.53;5054599;28;19920;-88
2023/07/15 08:50:36;;;;;;;;;;;23.90;69.50;;;23.29;63.34;96599.16;5054742;28;19920;-88
2023/07/15 08:53:04;;;;;;;;;;;23.90;69.50;;;23.28;63.08;96605.91;5054579;28;19921;-88
2023/07/15 08:55:32;;;;;;;;;;;23.90;69.20;;;23.29;63.11;96596.38;5053708;28;19921;-88
2023/07/15 08:58:00;;;;;;;;;;;23.90;69.20;;;23.29;63.41;96609.50;5037750;28;19920;-88
2023/07/15 09:00:28;;;;;;;;;;;23.90;69.50;;;23.29;63.29;96604.75;5054009;28;20212;-88
2023/07/15 09:02:56;;;;;;;;;;;23.90;69.30;;;23.29;63.16;96596.38;5054226;28;19927;-87
2023/07/15 09:05:24;;;;;;;;;;;23.90;69.30;;;23.29;63.36;96592.72;5058712;28;19921;-88
2023/07/15 09:07:55;;;;;;;;;;;23.90;69.50;;;23.27;63.61;96590.28;5034079;28;20136;-88
2023/07/15 09:10:22;;;;;;;;;;;23.90;69.50;;;23.27;63.59;96601.47;5034431;28;19920;-88
2023/07/15 09:12:53;;;;;;;;;;;23.90;69.50;;;23.27;63.67;96593.09;5017644;28;19921;-88
2023/07/15 09:15:21;;;;;;;;;;;23.90;69.50;;;23.27;63.41;96601.47;5036653;28;19921;-88
2023/07/15 09:17:52;;;;;;;;;;;23.90;69.40;;;23.26;63.67;96594.25;5054076;28;19920;-88
2023/07/15 09:20:20;;;;;;;;;;;23.90;69.40;;;23.27;63.40;96595.88;5018645;28;19921;-88
2023/07/15 09:22:52;;;;;;;;;;;23.90;69.50;;;23.29;63.60;96603.91;5033998;28;19927;-87
2023/07/15 09:25:22;;;;;;;;;;;23.90;69.40;;;23.28;63.16;96600.31;5033145;28;20124;-88
2023/07/15 09:27:50;;;;;;;;;;;23.90;69.30;;;23.29;63.48;96601.94;5033942;28;19920;-87
2023/07/15 09:30:18;;;;;;;;;;;23.90;69.50;;;23.28;63.60;96603.09;5033845;28;20208;-88
2023/07/15 09:32:47;;;;;;;;;;;23.90;69.40;;;23.28;63.79;96607.84;5034114;28;19921;-88
2023/07/15 09:35:15;;;;;;;;;;;23.90;69.50;;;23.27;63.58;96601.47;5016703;28;19927;-88
2023/07/15 09:37:43;;;;;;;;;;;23.90;69.60;;;23.26;63.61;96587.81;5017170;28;19921;-88
2023/07/15 09:40:12;;;;;;;;;;;23.90;69.60;;;23.26;63.91;96588.66;5017394;28;19927;-88
2023/07/15 09:42:54;;;;;;;;;;;23.90;69.80;;;23.24;63.93;96588.19;5050387;28;19921;-88
2023/07/15 09:45:32;;;;;;;;;;;23.90;69.80;;;23.23;63.65;96585.75;5066492;28;19920;-88
2023/07/15 09:47:59;;;;;;;;;;;23.80;69.60;;;23.22;63.51;96590.50;5053464;28;19921;-88
2023/07/15 09:50:27;;;;;;;;;;;23.80;69.60;;;23.22;63.89;96581.31;5037265;28;20093;-88
2023/07/15 09:52:55;;;;;;;;;;;23.80;69.60;;;23.21;63.95;96583.28;5036866;28;19920;-88
2023/07/15 09:55:23;;;;;;;;;;;23.80;69.80;;;23.20;64.23;96590.03;5052920;28;19927;-87
2023/07/15 09:57:54;;;;;;;;;;;23.80;69.90;;;23.18;64.00;96578.34;5053449;28;20119;-88
2023/07/15 10:00:22;;;;;;;;;;;23.80;70.00;;;23.17;63.99;96579.53;5071384;28;19921;-89
2023/07/15 10:02:52;;;;;;;;;;;23.80;69.80;;;23.19;64.12;96581.97;5036865;28;19920;-87
2023/07/15 10:05:20;;;;;;;;;;;23.80;70.00;;;23.18;64.02;96581.13;5040661;28;20116;-88
2023/07/15 10:07:48;;;;;;;;;;;23.80;69.80;;;23.20;63.50;96572.47;5033376;28;19925;-88
2023/07/15 10:10:16;;;;;;;;;;;23.80;69.60;;;23.20;63.43;96578.84;5033426;28;19920;-88
2023/07/15 10:12:44;;;;;;;;;;;23.80;69.60;;;23.21;63.48;96586.06;5016809;28;20109;-87
2023/07/15 10:15:13;;;;;;;;;;;23.80;69.40;;;23.23;63.26;96577.38;5016301;28;19943;-88
2023/07/15 10:17:41;;;;;;;;;;;23.80;69.40;;;23.22;64.03;96579.31;5017017;28;19921;-88
2023/07/15 10:20:11;;;;;;;;;;;23.80;69.80;;;23.21;64.03;96574.09;5033204;28;19920;-87
2023/07/15 10:22:39;;;;;;;;;;;23.80;70.00;;;23.18;63.91;96572.75;5016788;28;19956;-87
2023/07/15 10:25:09;;;;;;;;;;;23.80;70.00;;;23.19;64.19;96581.97;5032655;28;19921;-88
2023/07/15 10:27:37;;;;;;;;;;;23.80;70.10;;;23.17;64.28;96575.91;5033328;28;19921;-88
2023/07/15 10:30:20;;;;;;;;;;;23.80;70.10;;;23.14;64.19;96563.47;5016854;28;19935;-88
2023/07/15 10:33:09;;;;;;;;;;;23.80;70.10;;;23.13;64.19;96564.63;5033130;28;19927;-88
2023/07/15 10:35:47;;;;;;;;;;;23.80;70.30;;;23.12;64.13;96561.00;5016131;28;19927;-88
2023/07/15 10:38:25;;;;;;;;;;;23.70;70.30;;;23.12;64.19;96560.19;5033336;28;20222;-88
2023/07/15 10:40:55;;;;;;;;;;;23.80;70.40;;;23.10;64.62;96554.13;5016866;28;19921;-88
2023/07/15 10:43:36;;;;;;;;;;;23.70;70.50;;;23.11;64.50;96552.97;5016460;28;19920;-88
2023/07/15 10:46:06;;;;;;;;;;;23.70;70.50;;;23.10;64.84;96556.91;5050685;28;19921;-88
2023/07/15 11:01:06;;;;;;;;;;;23.70;70.30;;;23.09;64.86;96558.06;4383149;32;20195;-84
2023/07/15 11:03:36;;;;;;;;;;;23.70;71.00;;;23.09;64.63;96558.91;4989021;28;2221446;-84
2023/07/15 11:06:04;;;;;;;;;;;23.70;70.90;;;23.08;64.44;96556.44;5050430;28;20234;-84
2023/07/15 11:08:32;;;;;;;;;;;23.70;70.90;;;23.08;65.02;96562.03;5049991;28;20097;-84
2023/07/15 11:11:00;;;;;;;;;;;23.70;71.00;;;23.07;64.98;96558.44;5049430;28;19922;-84
2023/07/15 11:13:28;;;;;;;;;;;23.70;71.00;;;23.07;64.88;96555.63;5050099;28;19920;-84
2023/07/15 11:15:56;;;;;;;;;;;23.70;71.00;;;23.08;64.57;96560.06;5033231;28;19920;-84
2023/07/15 11:18:27;;;;;;;;;;;23.70;71.00;;;23.08;64.87;96560.06;5049944;28;19921;-84
2023/07/15 11:20:56;;;;;;;;;;;23.70;71.00;;;23.08;64.81;96553.66;5066745;28;19921;-83
2023/07/15 11:23:24;;;;;;;;;;;23.70;71.00;;;23.07;64.59;96555.63;5033338;28;19921;-84
2023/07/15 11:25:52;;;;;;;;;;;23.70;70.90;;;23.06;65.05;96547.59;5049773;28;19927;-84
2023/07/15 11:28:20;;;;;;;;;;;23.70;71.00;;;23.04;64.94;96558.31;5066433;28;20116;-84
2023/07/15 11:30:48;;;;;;;;;;;23.70;71.00;;;23.04;64.56;96549.94;5048883;28;20097;-84
2023/07/15 11:33:16;;;;;;;;;;;23.70;70.70;;;23.03;64.78;96545.50;5049677;28;19921;-84
2023/07/15 11:35:46;;;;;;;;;;;23.70;71.00;;;23.03;64.54;96545.50;5049469;28;20131;-83
2023/07/15 11:38:15;;;;;;;;;;;23.60;71.00;;;23.03;64.80;96551.88;5049642;28;19968;-83
2023/07/15 11:40:51;;;;;;;;;;;23.70;71.20;;;23.02;65.09;96543.88;5065720;28;19921;-83
2023/07/15 11:43:19;;;;;;;;;;;23.70;71.10;;;23.03;65.09;96551.88;5033027;28;19943;-83
2023/07/15 11:45:47;;;;;;;;;;;23.60;71.10;;;23.02;64.81;96541.06;5032844;28;19921;-84
2023/07/15 11:48:19;;;;;;;;;;;23.70;71.10;;;23.02;65.05;96543.88;5032871;28;19920;-83
2023/07/15 11:50:49;;;;;;;;;;;23.60;71.10;;;23.01;64.79;96543.03;5032220;28;19920;-83
2023/07/15 11:53:24;;;;;;;;;;;23.60;71.10;;;23.02;64.89;96543.88;5049413;28;19939;-84
2023/07/15 11:55:52;;;;;;;;;;;23.60;71.10;;;23.01;64.96;96537.44;5032765;28;19921;-83